Terminal Aerodrome Forecast
Issued by NWS

Home | Current Version | Previous Version | Text Only | Print | Product List | Glossary On
Versions: 1 2 3 4 5 6 7 8 9 10 11 12 13 14 15 16 17 18 19 20 21
000
FTUS45 KFGZ 290303 AAB
TAFSEZ
TAF AMD
KSEZ 290303Z 2903/2924 16005KT P6SM SCT060 BKN100
      TEMPO 2903/2907 -TSRA BKN060CB
     FM290700 06010KT P6SM SCT100
     FM291800 21008KT P6SM SCT050 BKN090 PROB30 2918/2924 -SHRA
      BKN050=

USA.gov is the U.S. government's official web portal to all federal, state and local government web resources and services.